Altavista, Virginia
Current Conditions -  °F | °C
As of 3:55 PM on Friday 31 Oct 2014 (Local Time) from K0V4 Reporting Station
Overcast Overcast  
Wind Chill: 58°   Ceiling: 5500
Heat Index: 58°   Visibility: 10mi
Dew Point: 43°   Wind: 5mph
Humidity: 56%   Direction: 160°SSE
Pressure: 29.84"   Gusts: NA
Location:  37.11°N, 79.29°W
Report Text: K0V4 311955Z AUTO 16004KT 10SM SCT041 OVC055 15/06 A2984 RMK AO1 T01470060
Loading
Personal Weather Stations






























Interactive Weather Map
Tropical Storm Tracking
New forecast layout! Learn more

10-Day Weather Forecast

Advertisements
Track Severe Weather on mobile